JFA62 LFLY-LFMT
Flight info
| Callsign | JFA62 |
|---|---|
| Flight time | 0h 53m |
| Altitude | 20000 |
| Route | ROMA6P ROMAM A6 MTL DCT MOLEN DCT NG NG7T |
| Aircraft | PC12/L-SDFGRWY/S |
Departure
| Time | 2026-04-29 20:34 |
|---|---|
| Airport | Lyon Bron Airport (LFLY) |
Arrival
| Time | 2026-04-29 21:28 |
|---|---|
| Airport | Montpellier-Méditerranée Airport (LFMT) |
| Time | Latitude | Longitude | Altitude | Speed | Heading |
|---|---|---|---|---|---|
| 2026-04-29 20:12 | 45.72703 | 4.93989 | 654 ft | 0 kts | 342° |
| 2026-04-29 20:30 | 45.72716 | 4.93990 | 654 ft | 5 kts | 34° |
| 2026-04-29 20:30 | 45.72706 | 4.94048 | 654 ft | 6 kts | 120° |
| 2026-04-29 20:30 | 45.72687 | 4.94117 | 654 ft | 8 kts | 108° |
| 2026-04-29 20:30 | 45.72696 | 4.94212 | 654 ft | 11 kts | 72° |
| 2026-04-29 20:31 | 45.72712 | 4.94284 | 654 ft | 0 kts | 73° |
| 2026-04-29 20:31 | 45.72715 | 4.94298 | 654 ft | 7 kts | 73° |
| 2026-04-29 20:31 | 45.72736 | 4.94399 | 654 ft | 12 kts | 120° |
| 2026-04-29 20:32 | 45.72639 | 4.94457 | 654 ft | 20 kts | 164° |
| 2026-04-29 20:32 | 45.72475 | 4.94525 | 654 ft | 26 kts | 164° |
| 2026-04-29 20:32 | 45.72308 | 4.94589 | 654 ft | 21 kts | 178° |
| 2026-04-29 20:32 | 45.72287 | 4.94607 | 654 ft | 6 kts | 341° |
| 2026-04-29 20:33 | 45.72291 | 4.94606 | 654 ft | 0 kts | 341° |
| 2026-04-29 20:33 | 45.72292 | 4.94605 | 654 ft | 2 kts | 342° |
| 2026-04-29 20:33 | 45.72475 | 4.94528 | 654 ft | 65 kts | 342° |
| 2026-04-29 20:33 | 45.73075 | 4.94262 | 775 ft | 103 kts | 337° |
| 2026-04-29 20:34 | 45.73754 | 4.93879 | 1150 ft | 109 kts | 336° |
| 2026-04-29 20:34 | 45.74457 | 4.93422 | 1540 ft | 116 kts | 335° |
| 2026-04-29 20:34 | 45.75198 | 4.92901 | 1954 ft | 122 kts | 333° |
| 2026-04-29 20:34 | 45.76020 | 4.92322 | 2189 ft | 145 kts | 338° |
| 2026-04-29 20:35 | 45.77016 | 4.91738 | 2474 ft | 161 kts | 338° |
| 2026-04-29 20:35 | 45.78064 | 4.91266 | 3032 ft | 156 kts | 352° |
| 2026-04-29 20:35 | 45.79109 | 4.90988 | 3567 ft | 155 kts | 349° |
| 2026-04-29 20:35 | 45.80148 | 4.90632 | 4107 ft | 153 kts | 346° |
| 2026-04-29 20:36 | 45.81181 | 4.90243 | 4569 ft | 158 kts | 346° |
| 2026-04-29 20:36 | 45.82256 | 4.89831 | 4992 ft | 164 kts | 345° |
| 2026-04-29 20:36 | 45.83370 | 4.89402 | 5415 ft | 169 kts | 345° |
| 2026-04-29 20:36 | 45.84518 | 4.88960 | 5818 ft | 175 kts | 344° |
| 2026-04-29 20:37 | 45.85715 | 4.88499 | 6193 ft | 182 kts | 344° |
| 2026-04-29 20:37 | 45.86956 | 4.88020 | 6567 ft | 187 kts | 343° |
| 2026-04-29 20:37 | 45.88212 | 4.87532 | 6933 ft | 191 kts | 344° |
| 2026-04-29 20:37 | 45.89513 | 4.87031 | 7322 ft | 193 kts | 345° |
| 2026-04-29 20:38 | 45.90813 | 4.87204 | 7692 ft | 194 kts | 29° |
| 2026-04-29 20:38 | 45.91631 | 4.88654 | 8044 ft | 193 kts | 74° |
| 2026-04-29 20:38 | 45.91512 | 4.90514 | 8371 ft | 193 kts | 113° |
| 2026-04-29 20:38 | 45.90783 | 4.92134 | 8741 ft | 193 kts | 127° |
| 2026-04-29 20:39 | 45.89904 | 4.93585 | 9091 ft | 194 kts | 131° |
| 2026-04-29 20:39 | 45.89003 | 4.95044 | 9362 ft | 199 kts | 129° |
| 2026-04-29 20:39 | 45.88081 | 4.96535 | 9696 ft | 199 kts | 135° |
| 2026-04-29 20:39 | 45.87072 | 4.97899 | 10022 ft | 200 kts | 134° |
| 2026-04-29 20:40 | 45.86091 | 4.99292 | 10292 ft | 203 kts | 133° |
| 2026-04-29 20:40 | 45.85096 | 5.00735 | 10562 ft | 205 kts | 132° |
| 2026-04-29 20:40 | 45.84087 | 5.02213 | 10836 ft | 207 kts | 132° |
| 2026-04-29 20:40 | 45.83087 | 5.03687 | 11082 ft | 209 kts | 132° |
| 2026-04-29 20:41 | 45.82060 | 5.05198 | 11332 ft | 211 kts | 133° |
| 2026-04-29 20:41 | 45.81037 | 5.06697 | 11576 ft | 214 kts | 132° |
| 2026-04-29 20:41 | 45.79989 | 5.08239 | 11824 ft | 216 kts | 132° |
| 2026-04-29 20:41 | 45.78940 | 5.09791 | 12072 ft | 217 kts | 130° |
| 2026-04-29 20:42 | 45.77929 | 5.11379 | 12315 ft | 219 kts | 131° |
| 2026-04-29 20:42 | 45.76870 | 5.12957 | 12560 ft | 220 kts | 132° |
| 2026-04-29 20:42 | 45.75808 | 5.14510 | 12800 ft | 221 kts | 133° |
| 2026-04-29 20:42 | 45.74722 | 5.16093 | 13049 ft | 221 kts | 133° |
| 2026-04-29 20:43 | 45.73647 | 5.17650 | 13293 ft | 222 kts | 133° |
| 2026-04-29 20:43 | 45.72550 | 5.19236 | 13541 ft | 223 kts | 133° |
| 2026-04-29 20:43 | 45.71468 | 5.20801 | 13786 ft | 223 kts | 133° |
| 2026-04-29 20:43 | 45.70375 | 5.22382 | 13983 ft | 225 kts | 133° |
| 2026-04-29 20:44 | 45.69284 | 5.23959 | 14199 ft | 226 kts | 133° |
| 2026-04-29 20:44 | 45.68174 | 5.25563 | 14409 ft | 227 kts | 133° |
| 2026-04-29 20:44 | 45.67058 | 5.27172 | 14600 ft | 229 kts | 133° |
| 2026-04-29 20:44 | 45.65828 | 5.28601 | 14776 ft | 231 kts | 158° |
| 2026-04-29 20:45 | 45.64246 | 5.28882 | 14976 ft | 230 kts | 182° |
| 2026-04-29 20:45 | 45.62653 | 5.28612 | 15172 ft | 230 kts | 188° |
| 2026-04-29 20:45 | 45.61077 | 5.28247 | 15370 ft | 230 kts | 189° |
| 2026-04-29 20:45 | 45.59492 | 5.27869 | 15595 ft | 229 kts | 189° |
| 2026-04-29 20:46 | 45.57930 | 5.27498 | 15819 ft | 228 kts | 189° |
| 2026-04-29 20:46 | 45.56357 | 5.27128 | 16044 ft | 228 kts | 190° |
| 2026-04-29 20:46 | 45.54815 | 5.26765 | 16264 ft | 227 kts | 190° |
| 2026-04-29 20:46 | 45.53263 | 5.26398 | 16485 ft | 226 kts | 190° |
| 2026-04-29 20:47 | 45.51714 | 5.26033 | 16715 ft | 224 kts | 190° |
| 2026-04-29 20:47 | 45.50174 | 5.25672 | 16935 ft | 223 kts | 190° |
| 2026-04-29 20:47 | 45.48646 | 5.25310 | 17167 ft | 222 kts | 190° |
| 2026-04-29 20:47 | 45.47136 | 5.24956 | 17383 ft | 221 kts | 190° |
| 2026-04-29 20:48 | 45.45619 | 5.24601 | 17605 ft | 220 kts | 190° |
| 2026-04-29 20:48 | 45.44114 | 5.24247 | 17823 ft | 219 kts | 194° |
| 2026-04-29 20:48 | 45.42689 | 5.23580 | 18049 ft | 216 kts | 202° |
| 2026-04-29 20:48 | 45.41277 | 5.22809 | 18259 ft | 216 kts | 202° |
| 2026-04-29 20:49 | 45.39883 | 5.22049 | 18457 ft | 216 kts | 202° |
| 2026-04-29 20:49 | 45.38475 | 5.21281 | 18654 ft | 217 kts | 202° |
| 2026-04-29 20:49 | 45.37056 | 5.20513 | 18830 ft | 218 kts | 203° |
| 2026-04-29 20:49 | 45.35650 | 5.19746 | 19002 ft | 218 kts | 202° |
| 2026-04-29 20:50 | 45.34229 | 5.18975 | 19175 ft | 218 kts | 202° |
| 2026-04-29 20:50 | 45.32822 | 5.18213 | 19328 ft | 220 kts | 202° |
| 2026-04-29 20:50 | 45.31379 | 5.17433 | 19473 ft | 221 kts | 202° |
| 2026-04-29 20:50 | 45.29950 | 5.16657 | 19597 ft | 223 kts | 202° |
| 2026-04-29 20:51 | 45.28491 | 5.15869 | 19724 ft | 225 kts | 202° |
| 2026-04-29 20:51 | 45.27017 | 5.15070 | 19851 ft | 226 kts | 202° |
| 2026-04-29 20:51 | 45.25558 | 5.14283 | 19973 ft | 227 kts | 202° |
| 2026-04-29 20:51 | 45.24077 | 5.13483 | 20100 ft | 228 kts | 202° |
| 2026-04-29 20:52 | 45.22586 | 5.12678 | 20214 ft | 229 kts | 202° |
| 2026-04-29 20:52 | 45.21092 | 5.11871 | 20311 ft | 231 kts | 202° |
| 2026-04-29 20:52 | 45.19584 | 5.11060 | 20408 ft | 232 kts | 202° |
| 2026-04-29 20:52 | 45.18076 | 5.10248 | 20517 ft | 233 kts | 202° |
| 2026-04-29 20:53 | 45.16557 | 5.09428 | 20631 ft | 234 kts | 203° |
| 2026-04-29 20:53 | 45.15033 | 5.08610 | 20729 ft | 235 kts | 203° |
| 2026-04-29 20:53 | 45.13505 | 5.07787 | 20829 ft | 235 kts | 203° |
| 2026-04-29 20:53 | 45.11978 | 5.06963 | 20941 ft | 235 kts | 202° |
| 2026-04-29 20:54 | 45.08892 | 5.05302 | 21035 ft | 241 kts | 202° |
| 2026-04-29 20:54 | 45.07325 | 5.04461 | 21034 ft | 246 kts | 202° |
| 2026-04-29 20:54 | 45.05698 | 5.03590 | 21039 ft | 250 kts | 202° |
| 2026-04-29 20:55 | 45.04081 | 5.02721 | 21038 ft | 253 kts | 202° |
| 2026-04-29 20:55 | 45.02411 | 5.01827 | 21031 ft | 256 kts | 202° |
| 2026-04-29 20:55 | 45.00752 | 5.00938 | 21023 ft | 258 kts | 202° |
| 2026-04-29 20:55 | 44.99066 | 5.00037 | 21025 ft | 260 kts | 202° |
| 2026-04-29 20:56 | 44.97374 | 4.99132 | 21024 ft | 261 kts | 202° |
| 2026-04-29 20:56 | 44.95672 | 4.98222 | 21029 ft | 262 kts | 202° |
| 2026-04-29 20:56 | 44.93960 | 4.97310 | 21018 ft | 263 kts | 202° |
| 2026-04-29 20:56 | 44.92261 | 4.96401 | 21032 ft | 263 kts | 202° |
| 2026-04-29 20:57 | 44.90538 | 4.95483 | 21028 ft | 264 kts | 202° |
| 2026-04-29 20:57 | 44.88825 | 4.94570 | 21044 ft | 264 kts | 202° |
| 2026-04-29 20:57 | 44.87085 | 4.93640 | 21042 ft | 265 kts | 202° |
| 2026-04-29 20:57 | 44.85341 | 4.92711 | 21039 ft | 266 kts | 202° |
| 2026-04-29 20:58 | 44.83625 | 4.91796 | 21035 ft | 266 kts | 202° |
| 2026-04-29 20:58 | 44.81889 | 4.90873 | 21037 ft | 267 kts | 202° |
| 2026-04-29 20:58 | 44.80143 | 4.89946 | 21029 ft | 267 kts | 202° |
| 2026-04-29 20:58 | 44.78411 | 4.89025 | 21030 ft | 267 kts | 202° |
| 2026-04-29 20:59 | 44.76671 | 4.88102 | 21035 ft | 266 kts | 202° |
| 2026-04-29 20:59 | 44.74945 | 4.87185 | 21037 ft | 267 kts | 201° |
| 2026-04-29 20:59 | 44.73216 | 4.86269 | 21033 ft | 267 kts | 201° |
| 2026-04-29 20:59 | 44.71466 | 4.85344 | 21033 ft | 267 kts | 201° |
| 2026-04-29 21:00 | 44.69738 | 4.84430 | 21031 ft | 267 kts | 202° |
| 2026-04-29 21:00 | 44.67997 | 4.83508 | 21034 ft | 267 kts | 202° |
| 2026-04-29 21:00 | 44.66254 | 4.82584 | 21033 ft | 267 kts | 201° |
| 2026-04-29 21:00 | 44.64527 | 4.81673 | 21033 ft | 267 kts | 202° |
| 2026-04-29 21:01 | 44.62779 | 4.80751 | 21034 ft | 267 kts | 202° |
| 2026-04-29 21:01 | 44.61044 | 4.79833 | 21035 ft | 267 kts | 201° |
| 2026-04-29 21:01 | 44.59315 | 4.78921 | 21034 ft | 267 kts | 202° |
| 2026-04-29 21:01 | 44.57587 | 4.78010 | 21033 ft | 267 kts | 201° |
| 2026-04-29 21:02 | 44.55832 | 4.77086 | 21033 ft | 267 kts | 201° |
| 2026-04-29 21:02 | 44.54104 | 4.76176 | 21031 ft | 267 kts | 202° |
| 2026-04-29 21:02 | 44.52380 | 4.75270 | 21033 ft | 266 kts | 201° |
| 2026-04-29 21:02 | 44.50642 | 4.74356 | 21037 ft | 266 kts | 201° |
| 2026-04-29 21:03 | 44.48920 | 4.73451 | 21040 ft | 266 kts | 201° |
| 2026-04-29 21:03 | 44.47179 | 4.72537 | 21043 ft | 265 kts | 202° |
| 2026-04-29 21:03 | 44.45467 | 4.71639 | 21043 ft | 265 kts | 202° |
| 2026-04-29 21:03 | 44.43726 | 4.70726 | 21045 ft | 265 kts | 201° |
| 2026-04-29 21:04 | 44.42013 | 4.69827 | 21047 ft | 264 kts | 201° |
| 2026-04-29 21:04 | 44.40281 | 4.68921 | 21047 ft | 264 kts | 201° |
| 2026-04-29 21:04 | 44.38580 | 4.68030 | 21048 ft | 264 kts | 201° |
| 2026-04-29 21:04 | 44.36860 | 4.67131 | 21046 ft | 264 kts | 201° |
| 2026-04-29 21:05 | 44.35135 | 4.66228 | 21049 ft | 264 kts | 201° |
| 2026-04-29 21:05 | 44.33418 | 4.65330 | 21048 ft | 264 kts | 201° |
| 2026-04-29 21:05 | 44.31689 | 4.64427 | 21050 ft | 264 kts | 201° |
| 2026-04-29 21:05 | 44.29972 | 4.63532 | 21050 ft | 264 kts | 201° |
| 2026-04-29 21:06 | 44.28259 | 4.62639 | 21048 ft | 264 kts | 201° |
| 2026-04-29 21:06 | 44.26543 | 4.61744 | 21052 ft | 264 kts | 201° |
| 2026-04-29 21:06 | 44.24813 | 4.60843 | 21049 ft | 264 kts | 201° |
| 2026-04-29 21:06 | 44.23098 | 4.59951 | 21043 ft | 264 kts | 201° |
| 2026-04-29 21:07 | 44.21384 | 4.59059 | 21037 ft | 264 kts | 201° |
| 2026-04-29 21:07 | 44.19646 | 4.58157 | 21033 ft | 264 kts | 201° |
| 2026-04-29 21:07 | 44.17941 | 4.57269 | 21031 ft | 264 kts | 201° |
| 2026-04-29 21:07 | 44.16211 | 4.56371 | 21031 ft | 265 kts | 201° |
| 2026-04-29 21:08 | 44.14494 | 4.55480 | 21030 ft | 265 kts | 201° |
| 2026-04-29 21:08 | 44.12772 | 4.54587 | 21030 ft | 265 kts | 201° |
| 2026-04-29 21:08 | 44.11042 | 4.53691 | 21031 ft | 265 kts | 201° |
| 2026-04-29 21:08 | 44.09301 | 4.52790 | 21030 ft | 265 kts | 201° |
| 2026-04-29 21:09 | 44.07576 | 4.51898 | 21030 ft | 265 kts | 201° |
| 2026-04-29 21:09 | 44.05852 | 4.51004 | 21034 ft | 265 kts | 201° |
| 2026-04-29 21:09 | 44.04116 | 4.50108 | 21032 ft | 265 kts | 201° |
| 2026-04-29 21:09 | 44.02392 | 4.49216 | 21035 ft | 265 kts | 201° |
| 2026-04-29 21:10 | 44.00671 | 4.48329 | 21026 ft | 265 kts | 201° |
| 2026-04-29 21:10 | 43.98938 | 4.47435 | 21029 ft | 265 kts | 201° |
| 2026-04-29 21:10 | 43.97214 | 4.46546 | 21028 ft | 265 kts | 201° |
| 2026-04-29 21:10 | 43.95491 | 4.45657 | 21027 ft | 265 kts | 201° |
| 2026-04-29 21:11 | 43.93766 | 4.44770 | 21031 ft | 265 kts | 201° |
| 2026-04-29 21:11 | 43.92057 | 4.43889 | 21031 ft | 265 kts | 201° |
| 2026-04-29 21:11 | 43.90310 | 4.42988 | 21032 ft | 265 kts | 201° |
| 2026-04-29 21:11 | 43.88597 | 4.42109 | 21028 ft | 265 kts | 201° |
| 2026-04-29 21:12 | 43.86871 | 4.41220 | 21029 ft | 265 kts | 201° |
| 2026-04-29 21:12 | 43.85319 | 4.39897 | 21033 ft | 263 kts | 222° |
| 2026-04-29 21:12 | 43.84057 | 4.38070 | 20976 ft | 265 kts | 229° |
| 2026-04-29 21:12 | 43.82823 | 4.36132 | 20606 ft | 273 kts | 229° |
| 2026-04-29 21:13 | 43.81541 | 4.34129 | 20082 ft | 282 kts | 228° |
| 2026-04-29 21:13 | 43.80255 | 4.32116 | 19511 ft | 277 kts | 228° |
| 2026-04-29 21:13 | 43.78984 | 4.30145 | 18941 ft | 272 kts | 228° |
| 2026-04-29 21:13 | 43.77743 | 4.28221 | 18374 ft | 269 kts | 228° |
| 2026-04-29 21:14 | 43.76509 | 4.26304 | 17810 ft | 267 kts | 227° |
| 2026-04-29 21:14 | 43.75293 | 4.24420 | 17232 ft | 265 kts | 228° |
| 2026-04-29 21:14 | 43.74077 | 4.22534 | 16641 ft | 263 kts | 228° |
| 2026-04-29 21:14 | 43.72868 | 4.20663 | 16051 ft | 261 kts | 228° |
| 2026-04-29 21:15 | 43.71667 | 4.18802 | 15465 ft | 259 kts | 228° |
| 2026-04-29 21:15 | 43.70476 | 4.16959 | 14871 ft | 258 kts | 228° |
| 2026-04-29 21:15 | 43.69287 | 4.15124 | 14277 ft | 260 kts | 227° |
| 2026-04-29 21:15 | 43.68077 | 4.13261 | 13697 ft | 266 kts | 228° |
| 2026-04-29 21:16 | 43.66829 | 4.11332 | 13104 ft | 270 kts | 228° |
| 2026-04-29 21:16 | 43.65593 | 4.09419 | 12503 ft | 269 kts | 228° |
| 2026-04-29 21:16 | 43.64374 | 4.07532 | 11907 ft | 260 kts | 227° |
| 2026-04-29 21:16 | 43.63179 | 4.05690 | 11308 ft | 253 kts | 227° |
| 2026-04-29 21:17 | 43.62033 | 4.03928 | 10722 ft | 248 kts | 228° |
| 2026-04-29 21:17 | 43.60904 | 4.02187 | 10162 ft | 242 kts | 227° |
| 2026-04-29 21:17 | 43.59802 | 4.00495 | 9725 ft | 234 kts | 227° |
| 2026-04-29 21:17 | 43.58608 | 3.99009 | 9152 ft | 232 kts | 204° |
| 2026-04-29 21:18 | 43.57056 | 3.98876 | 8617 ft | 230 kts | 167° |
| 2026-04-29 21:18 | 43.55598 | 3.99763 | 8057 ft | 230 kts | 151° |
| 2026-04-29 21:18 | 43.54261 | 4.00930 | 7493 ft | 229 kts | 147° |
| 2026-04-29 21:18 | 43.52958 | 4.02161 | 6925 ft | 227 kts | 146° |
| 2026-04-29 21:19 | 43.51661 | 4.03407 | 6353 ft | 226 kts | 146° |
| 2026-04-29 21:19 | 43.50397 | 4.04621 | 5788 ft | 224 kts | 145° |
| 2026-04-29 21:19 | 43.49129 | 4.05837 | 5223 ft | 224 kts | 145° |
| 2026-04-29 21:19 | 43.47842 | 4.07070 | 4641 ft | 224 kts | 144° |
| 2026-04-29 21:20 | 43.46578 | 4.08282 | 4070 ft | 224 kts | 144° |
| 2026-04-29 21:20 | 43.45313 | 4.09489 | 3495 ft | 218 kts | 143° |
| 2026-04-29 21:20 | 43.44096 | 4.10657 | 2925 ft | 212 kts | 143° |
| 2026-04-29 21:20 | 43.42905 | 4.11798 | 2436 ft | 205 kts | 143° |
| 2026-04-29 21:21 | 43.41769 | 4.12887 | 2069 ft | 194 kts | 143° |
| 2026-04-29 21:21 | 43.40809 | 4.13990 | 1970 ft | 170 kts | 119° |
| 2026-04-29 21:21 | 43.40695 | 4.15516 | 2004 ft | 169 kts | 71° |
| 2026-04-29 21:21 | 43.41427 | 4.16811 | 1996 ft | 177 kts | 39° |
| 2026-04-29 21:22 | 43.42497 | 4.17708 | 1987 ft | 184 kts | 29° |
| 2026-04-29 21:22 | 43.43670 | 4.18451 | 1984 ft | 188 kts | 25° |
| 2026-04-29 21:22 | 43.44890 | 4.19143 | 1983 ft | 191 kts | 22° |
| 2026-04-29 21:22 | 43.46205 | 4.19088 | 1997 ft | 198 kts | 336° |
| 2026-04-29 21:23 | 43.47272 | 4.17863 | 1995 ft | 203 kts | 311° |
| 2026-04-29 21:23 | 43.48147 | 4.16308 | 1986 ft | 205 kts | 307° |
| 2026-04-29 21:23 | 43.48969 | 4.14697 | 1980 ft | 206 kts | 305° |
| 2026-04-29 21:23 | 43.49817 | 4.13115 | 1969 ft | 206 kts | 318° |
| 2026-04-29 21:24 | 43.50818 | 4.11735 | 2020 ft | 204 kts | 298° |
| 2026-04-29 21:24 | 43.51417 | 4.10046 | 1886 ft | 190 kts | 300° |
| 2026-04-29 21:24 | 43.52069 | 4.08545 | 1715 ft | 176 kts | 304° |
| 2026-04-29 21:24 | 43.52728 | 4.07188 | 1530 ft | 164 kts | 306° |
| 2026-04-29 21:25 | 43.53347 | 4.05960 | 1337 ft | 144 kts | 306° |
| 2026-04-29 21:25 | 43.53870 | 4.04930 | 1173 ft | 121 kts | 307° |
| 2026-04-29 21:25 | 43.54306 | 4.04068 | 1041 ft | 97 kts | 307° |
| 2026-04-29 21:25 | 43.54673 | 4.03346 | 932 ft | 90 kts | 306° |
| 2026-04-29 21:26 | 43.55041 | 4.02614 | 834 ft | 99 kts | 306° |
| 2026-04-29 21:26 | 43.55430 | 4.01823 | 723 ft | 100 kts | 308° |
| 2026-04-29 21:26 | 43.55814 | 4.01076 | 519 ft | 92 kts | 307° |
| 2026-04-29 21:26 | 43.56191 | 4.00377 | 410 ft | 93 kts | 305° |
| 2026-04-29 21:27 | 43.56547 | 3.99660 | 279 ft | 87 kts | 307° |
| 2026-04-29 21:27 | 43.56907 | 3.98967 | 183 ft | 88 kts | 306° |
| 2026-04-29 21:27 | 43.57246 | 3.98285 | 50 ft | 87 kts | 306° |
| 2026-04-29 21:27 | 43.57560 | 3.97663 | 10 ft | 62 kts | 303° |
| 2026-04-29 21:28 | 43.57746 | 3.97293 | 12 ft | 37 kts | 304° |
| 2026-04-29 21:28 | 43.57826 | 3.97085 | 12 ft | 15 kts | 252° |
| 2026-04-29 21:28 | 43.57753 | 3.96997 | 12 ft | 7 kts | 216° |
| 2026-04-29 21:28 | 43.57750 | 3.96993 | 12 ft | 0 kts | 219° |
| 2026-04-29 21:29 | 43.57747 | 3.96990 | 12 ft | 4 kts | 225° |
| 2026-04-29 21:29 | 43.57740 | 3.96898 | 12 ft | 14 kts | 300° |
| 2026-04-29 21:29 | 43.57809 | 3.96766 | 12 ft | 18 kts | 304° |
| 2026-04-29 21:30 | 43.57886 | 3.96612 | 12 ft | 19 kts | 304° |
| 2026-04-29 21:30 | 43.57931 | 3.96480 | 12 ft | 12 kts | 216° |
| 2026-04-29 21:30 | 43.57843 | 3.96459 | 12 ft | 12 kts | 187° |
| 2026-04-29 21:30 | 43.57779 | 3.96403 | 12 ft | 11 kts | 289° |
| 2026-04-29 21:31 | 43.57809 | 3.96334 | 12 ft | 5 kts | 259° |
| 2026-04-29 21:31 | 43.57800 | 3.96301 | 12 ft | 2 kts | 307° |
| 2026-04-29 21:31 | 43.57806 | 3.96287 | 12 ft | 0 kts | 304° |